Time;durP1;ratioP1;P1;durP2;ratioP2;P2;SDS_P1;SDS_P2;PMS_P1;PMS_P2;Temp;Humidity;BMP_temperature;BMP_pressure;BME280_temperature;BME280_humidity;BME280_pressure;Samples;Min_cycle;Max_cycle;Signal;HPM_P1;HPM_P2
2022/06/15 00:01:22;;;;;;;0.80;0.80;;;14.80;59.20;;;15.10;43.49;95395.03;5054817;28;20231;-78
2022/06/15 00:03:51;;;;;;;0.70;0.70;;;14.80;59.20;;;15.07;43.17;95385.72;5065755;28;20572;-79
2022/06/15 00:06:25;;;;;;;0.60;0.60;;;14.70;59.10;;;15.05;43.45;95385.13;5055085;28;20221;-79
2022/06/15 00:08:55;;;;;;;0.60;0.60;;;14.70;59.40;;;15.00;43.48;95387.56;5038029;28;20205;-78
2022/06/15 00:11:28;;;;;;;0.50;0.50;;;14.70;59.20;;;15.00;43.73;95384.91;5072381;28;20609;-78
2022/06/15 00:13:59;;;;;;;0.60;0.60;;;14.60;59.30;;;14.94;43.56;95378.66;5074705;28;20538;-79
2022/06/15 00:16:26;;;;;;;0.70;0.70;;;14.60;59.20;;;14.94;43.57;95377.81;5070117;28;20640;-79
2022/06/15 00:18:54;;;;;;;0.60;0.60;;;14.60;59.00;;;14.91;43.84;95378.25;5071366;28;20578;-78
2022/06/15 00:21:21;;;;;;;0.50;0.50;;;14.50;59.10;;;14.87;43.64;95383.13;5068264;28;20226;-78
2022/06/15 00:23:50;;;;;;;0.70;0.70;;;14.50;59.10;;;14.83;43.55;95380.09;5054513;28;20194;-78
2022/06/15 00:26:17;;;;;;;0.60;0.60;;;14.50;59.50;;;14.82;43.91;95375.81;5069758;28;20210;-79
2022/06/15 00:28:45;;;;;;;0.55;0.55;;;14.50;59.60;;;14.79;43.98;95378.88;5054198;28;20191;-78
2022/06/15 00:31:13;;;;;;;0.50;0.50;;;14.40;59.60;;;14.77;44.07;95374.81;5084063;28;20219;-79
2022/06/15 00:33:40;;;;;;;0.60;0.60;;;14.40;59.80;;;14.74;44.04;95373.41;5071047;28;20245;-79
2022/06/15 00:36:14;;;;;;;0.80;0.80;;;14.30;59.80;;;14.72;44.36;95372.78;5089038;28;20217;-78
2022/06/15 00:38:53;;;;;;;0.63;0.63;;;14.40;60.20;;;14.69;44.31;95374.00;5091055;28;20256;-79
2022/06/15 00:41:27;;;;;;;0.50;0.50;;;14.40;60.70;;;14.64;44.27;95359.78;5074673;28;20218;-79
2022/06/15 00:44:16;;;;;;;0.60;0.60;;;14.30;60.20;;;14.61;44.26;95365.47;5091125;28;20194;-78
2022/06/15 00:46:45;;;;;;;0.70;0.70;;;14.30;60.70;;;14.57;44.52;95360.63;5072889;28;20656;-79
2022/06/15 00:49:47;;;;;;;0.60;0.60;;;14.20;60.10;;;14.53;44.76;95362.03;5054148;28;20197;-78
2022/06/15 00:52:22;;;;;;;0.60;0.60;;;14.20;61.00;;;14.52;44.39;95356.97;5072992;28;20269;-78
2022/06/15 00:54:50;;;;;;;0.60;0.60;;;14.20;60.50;;;14.52;44.47;95362.25;5070816;28;20714;-79
2022/06/15 00:57:19;;;;;;;0.60;0.60;;;14.20;60.60;;;14.49;44.83;95360.84;5087673;28;20198;-79
2022/06/15 00:59:58;;;;;;;0.80;0.80;;;14.20;60.30;;;14.47;44.73;95362.06;5054157;28;20311;-79
2022/06/15 01:02:27;;;;;;;0.70;0.70;;;14.10;60.30;;;14.45;44.77;95354.31;5054205;28;20651;-79
2022/06/15 01:05:01;;;;;;;0.50;0.50;;;14.20;60.60;;;14.45;44.88;95364.06;5068606;28;20234;-78
2022/06/15 01:07:52;;;;;;;0.50;0.50;;;14.10;60.50;;;14.39;45.05;95355.97;5091234;28;20209;-78
2022/06/15 01:10:57;;;;;;;0.50;0.50;;;14.10;61.30;;;14.37;44.85;95360.63;5074258;28;20226;-79
2022/06/15 01:13:40;;;;;;;0.70;0.70;;;14.10;61.30;;;14.35;44.92;95360.00;5057389;28;20226;-79
2022/06/15 01:16:32;;;;;;;0.50;0.50;;;14.10;61.20;;;14.31;44.85;95348.25;5057640;28;20221;-79
2022/06/15 01:19:27;;;;;;;0.73;0.73;;;14.10;62.10;;;14.30;45.04;95361.66;5078812;28;20199;-77
2022/06/15 01:22:18;;;;;;;0.50;0.50;;;14.00;61.30;;;14.21;45.02;95348.66;5053835;28;20604;-79
2022/06/15 01:25:39;;;;;;;0.50;0.50;;;14.00;61.30;;;14.23;44.98;95357.19;5086016;28;20226;-79
2022/06/15 01:28:48;;;;;;;0.50;0.50;;;14.00;60.90;;;14.22;45.10;95360.03;5085823;28;20199;-79
2022/06/15 01:31:30;;;;;;;0.70;0.70;;;13.90;60.50;;;14.20;45.12;95359.44;5070680;28;20226;-78
2022/06/15 01:34:21;;;;;;;0.60;0.60;;;13.90;61.30;;;14.19;45.12;95357.81;5054018;28;20202;-79
2022/06/15 01:37:03;;;;;;;0.50;0.50;;;13.90;60.80;;;14.17;45.31;95359.81;5069575;28;20256;-78
2022/06/15 01:39:57;;;;;;;0.50;0.50;;;13.90;61.50;;;14.16;45.21;95359.03;5056102;28;20272;-78
2022/06/15 01:42:38;;;;;;;0.60;0.60;;;13.80;61.60;;;14.16;45.36;95361.66;5057701;28;20230;-78
2022/06/15 01:45:11;;;;;;;0.50;0.50;;;13.80;61.70;;;14.15;45.46;95349.47;5075587;28;20393;-79
2022/06/15 01:47:43;;;;;;;0.50;0.50;;;13.80;61.40;;;14.16;45.51;95353.75;5057882;28;20202;-78
2022/06/15 01:50:17;;;;;;;0.50;0.50;;;13.80;61.60;;;14.15;45.49;95356.59;5041220;28;20802;-79
2022/06/15 01:52:59;;;;;;;0.60;0.60;;;13.80;61.60;;;14.13;45.62;95351.50;5057386;28;20210;-79
2022/06/15 01:55:39;;;;;;;0.40;0.40;;;13.80;61.80;;;14.11;45.75;95353.56;5087210;28;20218;-79
2022/06/15 01:58:09;;;;;;;0.60;0.60;;;13.80;61.80;;;14.07;45.74;95353.16;5057166;28;20198;-78
2022/06/15 02:00:38;;;;;;;0.60;0.60;;;13.80;61.40;;;14.05;45.73;95354.38;5060374;28;20222;-79
2022/06/15 02:03:26;;;;;;;0.60;0.60;;;13.70;61.30;;;14.01;45.68;95350.50;5057398;28;20655;-79
2022/06/15 02:06:21;;;;;;;0.55;0.55;;;13.70;61.70;;;13.95;45.71;95354.75;5057131;28;20765;-78
2022/06/15 02:09:33;;;;;;;0.40;0.40;;;13.70;61.90;;;13.90;45.80;95350.09;5058312;28;20198;-78
2022/06/15 02:12:07;;;;;;;0.73;0.73;;;13.60;61.90;;;13.88;45.82;95349.47;5076595;28;20717;-78
2022/06/15 02:14:52;;;;;;;0.60;0.60;;;13.60;61.70;;;13.84;45.78;95345.63;5077371;28;20218;-78
2022/06/15 02:17:27;;;;;;;0.60;0.60;;;13.60;62.20;;;13.83;46.12;95345.81;5076285;28;20225;-78
2022/06/15 02:20:03;;;;;;;0.60;0.60;;;13.60;61.80;;;13.80;46.27;95348.84;5077352;28;20222;-78
2022/06/15 02:22:33;;;;;;;0.60;0.60;;;13.50;62.90;;;13.77;46.10;95340.31;5077256;28;20597;-78
2022/06/15 02:25:04;;;;;;;0.60;0.60;;;13.50;61.80;;;13.76;46.41;95337.91;5076781;28;20221;-78
2022/06/15 02:27:37;;;;;;;0.57;0.57;;;13.50;62.10;;;13.74;46.07;95335.47;5075869;28;20224;-78
2022/06/15 02:30:15;;;;;;;0.70;0.70;;;13.50;62.00;;;13.74;46.64;95337.28;5072454;28;20309;-78
2022/06/15 02:32:47;;;;;;;0.60;0.60;;;13.40;62.60;;;13.70;46.44;95339.50;5057232;28;20194;-78
2022/06/15 02:35:20;;;;;;;0.60;0.60;;;13.40;62.20;;;13.73;46.49;95351.47;5056696;28;20681;-78
2022/06/15 02:37:50;;;;;;;0.50;0.50;;;13.40;62.00;;;13.67;46.37;95332.00;5057849;28;20199;-78
2022/06/15 02:40:23;;;;;;;0.50;0.50;;;13.40;62.20;;;13.67;46.39;95337.28;5073121;28;20257;-78
2022/06/15 02:42:51;;;;;;;0.60;0.60;;;13.40;62.30;;;13.67;46.67;95337.28;5056975;28;20222;-78
2022/06/15 02:45:34;;;;;;;0.50;0.50;;;13.40;62.10;;;13.65;46.71;95334.03;5072516;28;20492;-79
2022/06/15 02:48:06;;;;;;;0.60;0.60;;;13.40;62.90;;;13.65;46.87;95341.13;5063626;28;20665;-78
2022/06/15 02:50:41;;;;;;;0.50;0.50;;;13.40;62.50;;;13.65;46.89;95341.13;5072380;28;20301;-78
2022/06/15 02:53:18;;;;;;;0.60;0.60;;;13.30;62.80;;;13.63;46.85;95341.31;5056707;28;20198;-78
2022/06/15 02:55:49;;;;;;;0.60;0.60;;;13.30;62.70;;;13.61;47.04;95346.78;5060899;28;20218;-78
2022/06/15 02:58:35;;;;;;;0.60;0.60;;;13.30;62.60;;;13.56;47.12;95333.41;5072304;28;20570;-78
2022/06/15 03:01:04;;;;;;;0.60;0.60;;;13.30;63.00;;;13.59;47.06;95345.38;5050957;28;20241;-78
2022/06/15 03:03:35;;;;;;;0.60;0.60;;;13.30;62.40;;;13.60;47.11;95352.28;5056304;28;20218;-78
2022/06/15 03:06:27;;;;;;;0.80;0.80;;;13.30;62.40;;;13.59;46.86;95350.66;5073195;28;20234;-77
2022/06/15 03:09:05;;;;;;;0.55;0.55;;;13.30;62.50;;;13.57;47.11;95345.59;5054313;28;20226;-78
2022/06/15 03:11:40;;;;;;;0.60;0.60;;;13.30;62.50;;;13.56;47.16;95343.97;5040829;28;20207;-78
2022/06/15 03:14:16;;;;;;;0.60;0.60;;;13.30;62.60;;;13.56;47.16;95340.50;5046953;28;20222;-78
2022/06/15 03:16:48;;;;;;;0.60;0.60;;;13.30;62.60;;;13.56;47.37;95343.97;5054480;28;20635;-78
2022/06/15 03:19:19;;;;;;;0.60;0.60;;;13.30;62.70;;;13.56;47.22;95341.31;5052376;28;20210;-78
2022/06/15 03:21:51;;;;;;;0.50;0.50;;;13.30;62.70;;;13.59;47.55;95346.19;5070523;28;20203;-78
2022/06/15 03:24:20;;;;;;;0.60;0.60;;;13.30;62.80;;;13.59;47.44;95343.53;5038737;28;20758;-78
2022/06/15 03:26:49;;;;;;;0.60;0.60;;;13.30;63.00;;;13.59;47.40;95337.47;5040083;28;20190;-78
2022/06/15 03:29:20;;;;;;;0.60;0.60;;;13.30;63.00;;;13.61;47.70;95343.38;5039637;28;20752;-78
2022/06/15 03:31:50;;;;;;;0.60;0.60;;;13.30;63.00;;;13.64;47.77;95342.94;5051957;28;20210;-78
2022/06/15 03:34:21;;;;;;;0.60;0.60;;;13.30;63.00;;;13.66;47.58;95342.75;5042240;28;20222;-78
2022/06/15 03:36:48;;;;;;;0.60;0.60;;;13.30;63.20;;;13.69;47.76;95345.78;5051159;28;20681;-77
2022/06/15 03:39:16;;;;;;;0.50;0.50;;;13.30;63.10;;;13.71;47.80;95342.97;5069392;28;20185;-78
2022/06/15 03:41:45;;;;;;;0.50;0.50;;;13.40;63.30;;;13.74;47.79;95348.66;5057424;28;20201;-78
2022/06/15 03:44:14;;;;;;;0.50;0.50;;;13.50;63.30;;;13.78;48.19;95349.06;5082864;28;20206;-78
2022/06/15 03:46:42;;;;;;;0.60;0.60;;;13.40;63.40;;;13.80;47.91;95347.03;5049184;28;20211;-78
2022/06/15 03:49:19;;;;;;;0.50;0.50;;;13.50;63.40;;;13.85;47.89;95351.69;5056547;28;20206;-78
2022/06/15 03:51:47;;;;;;;0.60;0.60;;;13.50;63.40;;;13.88;47.93;95351.31;5061266;28;20190;-78
2022/06/15 03:54:14;;;;;;;0.60;0.60;;;13.60;63.50;;;13.88;48.11;95349.47;5069692;28;20202;-78
2022/06/15 03:56:46;;;;;;;0.60;0.60;;;13.60;63.50;;;13.93;48.29;95348.88;5053197;28;20206;-78
2022/06/15 03:59:19;;;;;;;0.60;0.60;;;13.60;64.00;;;13.96;48.36;95345.03;5048061;28;20663;-79
2022/06/15 04:01:50;;;;;;;0.70;0.70;;;13.70;63.80;;;13.99;48.18;95344.59;5048926;28;20210;-78
2022/06/15 04:04:18;;;;;;;0.60;0.60;;;13.70;63.60;;;14.05;48.59;95341.19;5074755;28;20225;-79
2022/06/15 04:06:46;;;;;;;0.60;0.60;;;13.80;63.80;;;14.09;48.33;95345.03;5053207;28;20206;-79
2022/06/15 04:09:21;;;;;;;0.50;0.50;;;13.80;63.80;;;14.13;48.32;95340.94;5057739;28;20229;-79
2022/06/15 04:12:08;;;;;;;0.60;0.60;;;13.80;63.90;;;14.19;48.69;95339.34;5076593;28;20216;-78
2022/06/15 04:14:39;;;;;;;0.70;0.70;;;13.90;64.00;;;14.23;48.53;95337.91;5040984;28;20214;-79
2022/06/15 04:17:32;;;;;;;0.60;0.60;;;13.90;64.00;;;14.29;48.60;95338.94;5062651;28;20215;-78
2022/06/15 04:23:02;;;;;;;0.50;0.50;;;14.10;64.00;;;14.43;48.71;95340.53;5054253;28;20234;-79
2022/06/15 04:25:33;;;;;;;0.50;0.50;;;14.20;64.20;;;14.49;48.60;95331.78;5059882;28;20221;-79
2022/06/15 04:28:02;;;;;;;0.50;0.50;;;14.20;64.40;;;14.57;48.76;95339.50;5054699;28;20676;-79
2022/06/15 04:30:30;;;;;;;0.52;0.52;;;14.30;64.30;;;14.63;48.92;95332.56;5037589;28;20370;-79
2022/06/15 04:32:58;;;;;;;0.60;0.60;;;14.40;64.50;;;14.71;48.94;95339.50;5072453;28;20191;-79
2022/06/15 04:35:31;;;;;;;0.60;0.60;;;14.40;64.40;;;14.78;48.89;95340.31;5050618;28;20252;-79
2022/06/15 04:38:02;;;;;;;0.50;0.50;;;14.50;64.40;;;14.87;49.08;95340.88;5051415;28;20210;-78
2022/06/15 04:40:37;;;;;;;0.70;0.70;;;14.60;64.60;;;14.95;49.19;95340.66;5060069;28;20222;-79
2022/06/15 04:43:08;;;;;;;0.50;0.50;;;14.80;64.70;;;15.03;49.05;95342.25;5056457;28;20256;-79
2022/06/15 04:45:36;;;;;;;0.60;0.60;;;14.80;64.80;;;15.12;49.28;95337.53;5073208;28;20229;-79
2022/06/15 04:48:11;;;;;;;0.50;0.50;;;14.80;64.80;;;15.21;49.30;95341.56;5059385;28;20213;-79
2022/06/15 04:50:41;;;;;;;0.50;0.50;;;14.90;64.80;;;15.31;49.33;95341.13;5058529;28;20599;-79
2022/06/15 04:53:10;;;;;;;0.70;0.70;;;15.00;64.80;;;15.34;49.41;95340.69;5068098;28;20596;-79
2022/06/15 04:55:37;;;;;;;0.60;0.60;;;15.10;64.80;;;15.48;49.41;95339.59;5066029;28;20708;-79
2022/06/15 04:58:05;;;;;;;0.60;0.60;;;15.20;64.90;;;15.56;49.43;95338.53;5054517;28;20194;-79
2022/06/15 05:00:40;;;;;;;0.40;0.40;;;15.30;65.00;;;15.67;49.50;95337.03;5054955;28;20714;-78
2022/06/15 05:03:12;;;;;;;0.50;0.50;;;15.40;65.30;;;15.75;49.18;95336.78;5041040;28;20214;-78
2022/06/15 05:05:39;;;;;;;0.50;0.50;;;15.50;65.10;;;15.87;49.20;95344.06;5054246;28;20249;-79
2022/06/15 05:08:07;;;;;;;0.50;0.50;;;15.60;65.10;;;15.94;49.83;95334.25;5037656;28;20194;-79
2022/06/15 05:10:38;;;;;;;0.50;0.50;;;15.70;65.10;;;16.03;49.47;95335.63;5057628;28;20685;-81
2022/06/15 05:13:05;;;;;;;0.70;0.70;;;15.80;64.90;;;16.13;49.36;95333.28;5053963;28;20207;-79
2022/06/15 05:15:33;;;;;;;0.52;0.52;;;15.90;64.90;;;16.22;49.25;95331.19;5056706;28;20215;-80
2022/06/15 05:18:05;;;;;;;0.40;0.40;;;16.00;64.70;;;16.35;49.37;95332.91;5058462;28;20706;-79
2022/06/15 05:20:40;;;;;;;0.50;0.50;;;16.10;64.80;;;16.45;49.29;95330.59;5075885;28;20230;-80
2022/06/15 05:23:14;;;;;;;0.50;0.50;;;16.20;64.80;;;16.57;49.26;95337.78;5066589;28;20229;-80
2022/06/15 05:26:01;;;;;;;0.50;0.50;;;16.40;64.60;;;16.66;49.34;95331.16;5094558;28;20220;-80
2022/06/15 05:28:32;;;;;;;0.50;0.50;;;16.50;64.40;;;16.78;49.28;95333.91;5089534;28;20194;-80
2022/06/15 05:31:16;;;;;;;0.50;0.50;;;16.60;64.40;;;16.91;48.75;95335.63;5074103;28;20222;-80
2022/06/15 05:33:53;;;;;;;0.40;0.40;;;16.80;64.60;;;17.02;48.82;95342.06;5058604;28;20203;-80
2022/06/15 05:36:28;;;;;;;0.50;0.50;;;16.90;64.50;;;17.11;49.02;95336.22;5069651;28;20213;-80
2022/06/15 05:38:57;;;;;;;0.50;0.50;;;16.90;64.40;;;17.20;48.97;95327.94;5086195;28;20198;-80
2022/06/15 05:41:26;;;;;;;0.50;0.50;;;17.10;64.40;;;17.34;49.14;95331.25;5076055;28;20201;-79
2022/06/15 05:44:08;;;;;;;0.50;0.50;;;17.20;64.40;;;17.46;48.82;95332.13;5085342;28;20623;-80
2022/06/15 05:46:42;;;;;;;0.43;0.43;;;17.20;64.50;;;17.59;49.10;95331.13;5080847;28;20199;-81
2022/06/15 05:49:23;;;;;;;0.60;0.60;;;17.40;65.30;;;17.73;48.85;95327.22;5076838;28;20226;-80
2022/06/15 05:51:50;;;;;;;0.50;0.50;;;17.50;64.30;;;17.86;48.49;95326.25;5075336;28;20203;-81
2022/06/15 05:54:18;;;;;;;0.60;0.60;;;17.70;64.30;;;17.99;48.61;95333.25;5056084;28;20213;-80
2022/06/15 05:56:45;;;;;;;0.40;0.40;;;17.80;64.30;;;18.13;48.74;95327.72;5073664;28;20206;-81
2022/06/15 05:59:13;;;;;;;0.40;0.40;;;17.90;64.30;;;18.27;48.73;95331.75;5056615;28;20195;-80
2022/06/15 06:01:41;;;;;;;0.40;0.40;;;18.20;64.30;;;18.41;48.63;95329.69;5056526;28;20240;-81
2022/06/15 06:04:14;;;;;;;0.50;0.50;;;18.20;64.30;;;18.54;48.81;95323.31;5056896;28;20250;-80
2022/06/15 06:06:41;;;;;;;0.50;0.50;;;18.30;64.30;;;18.67;48.46;95320.44;5073334;28;20195;-81
2022/06/15 06:09:11;;;;;;;0.40;0.40;;;18.50;64.20;;;18.83;48.67;95331.41;5072099;28;20241;-81
2022/06/15 06:11:39;;;;;;;0.40;0.40;;;18.60;64.00;;;18.95;48.38;95321.56;5058053;28;20674;-81
2022/06/15 06:14:08;;;;;;;0.40;0.40;;;18.80;64.00;;;19.09;48.00;95322.13;5057297;28;20473;-79
2022/06/15 06:16:35;;;;;;;0.50;0.50;;;18.90;63.90;;;19.22;48.29;95326.38;5057591;28;20576;-81
2022/06/15 06:19:03;;;;;;;0.40;0.40;;;19.10;63.90;;;19.33;48.45;95322.06;5040635;28;20186;-80
2022/06/15 06:21:30;;;;;;;0.40;0.40;;;19.10;63.90;;;19.44;47.60;95325.72;5040063;28;20213;-80
2022/06/15 06:23:57;;;;;;;0.40;0.40;;;19.30;63.60;;;19.51;47.62;95327.19;5040336;28;20715;-82
2022/06/15 06:26:33;;;;;;;0.52;0.52;;;19.30;63.40;;;19.57;47.39;95322.78;5057788;28;20198;-79
2022/06/15 06:29:01;;;;;;;0.40;0.40;;;19.50;63.20;;;19.65;47.41;95322.41;5067201;28;20201;-80
2022/06/15 06:31:29;;;;;;;0.50;0.50;;;19.50;63.10;;;19.67;47.54;95319.50;5077429;28;20550;-80
2022/06/15 06:33:57;;;;;;;0.40;0.40;;;19.70;63.20;;;19.78;47.72;95329.25;5069135;28;20198;-81
2022/06/15 06:36:41;;;;;;;0.40;0.40;;;19.70;63.20;;;19.83;47.29;95325.88;5039916;28;20734;-81
2022/06/15 06:39:18;;;;;;;0.47;0.47;;;19.80;63.30;;;19.91;47.44;95332.69;5044108;28;20194;-80
2022/06/15 06:41:46;;;;;;;0.40;0.40;;;19.80;63.30;;;19.93;47.85;95327.94;5076773;28;20255;-80
2022/06/15 06:44:14;;;;;;;0.40;0.40;;;19.90;63.40;;;19.99;47.38;95330.47;5076564;28;20216;-79
2022/06/15 06:46:45;;;;;;;0.45;0.45;;;20.00;63.50;;;20.07;47.61;95321.25;5072396;28;20285;-80
2022/06/15 06:49:13;;;;;;;0.40;0.40;;;20.00;63.50;;;20.17;47.65;95330.47;5040060;28;20206;-79
2022/06/15 06:51:42;;;;;;;0.40;0.40;;;20.10;63.60;;;20.22;47.75;95328.69;5056535;28;20205;-80
2022/06/15 06:54:13;;;;;;;0.40;0.40;;;20.10;63.50;;;20.29;47.81;95325.88;5056638;28;20194;-79
2022/06/15 06:56:41;;;;;;;0.40;0.40;;;20.30;63.70;;;20.36;47.43;95329.19;5040198;28;20255;-79
2022/06/15 06:59:11;;;;;;;0.40;0.40;;;20.30;63.70;;;20.43;47.30;95329.00;5066376;28;20197;-80
2022/06/15 07:01:42;;;;;;;0.40;0.40;;;20.30;63.70;;;20.53;47.90;95320.34;5045378;28;20289;-79
2022/06/15 07:04:11;;;;;;;0.40;0.40;;;20.40;63.80;;;20.60;47.62;95319.13;5076327;28;20206;-80
2022/06/15 07:06:40;;;;;;;0.40;0.40;;;20.50;63.90;;;20.71;47.46;95321.94;5043130;28;20643;-81
2022/06/15 07:09:09;;;;;;;0.40;0.40;;;20.60;63.80;;;20.81;47.05;95323.97;5075740;28;20664;-80
2022/06/15 07:11:37;;;;;;;0.50;0.50;;;20.70;63.60;;;20.92;47.20;95323.84;5076822;28;20198;-80
2022/06/15 07:14:06;;;;;;;0.40;0.40;;;20.80;64.10;;;21.03;47.35;95321.31;5059041;28;20230;-79
2022/06/15 07:16:40;;;;;;;0.40;0.40;;;20.90;64.00;;;21.16;47.72;95314.81;5070569;28;20656;-81
2022/06/15 07:19:08;;;;;;;0.40;0.40;;;21.00;63.80;;;21.28;47.41;95321.59;5059694;28;20592;-80
2022/06/15 07:21:35;;;;;;;0.40;0.40;;;21.10;63.50;;;21.38;47.00;95314.78;5051498;28;20214;-80
2022/06/15 07:24:03;;;;;;;0.40;0.40;;;21.20;63.40;;;21.50;46.81;95315.44;5053048;28;20216;-79
2022/06/15 07:26:42;;;;;;;0.50;0.50;;;21.30;63.20;;;21.59;46.80;95311.31;5084758;28;20231;-80
2022/06/15 07:29:12;;;;;;;0.50;0.50;;;21.50;63.10;;;21.72;46.57;95319.97;5065653;28;20211;-80
2022/06/15 07:31:45;;;;;;;0.40;0.40;;;21.60;63.10;;;21.82;46.47;95308.59;5061404;28;20662;-81
2022/06/15 07:34:13;;;;;;;0.40;0.40;;;21.70;62.90;;;21.91;46.86;95310.53;5074864;28;20559;-79
2022/06/15 07:36:49;;;;;;;0.30;0.30;;;21.80;63.10;;;22.04;45.94;95313.84;5038784;28;20191;-81
2022/06/15 07:39:21;;;;;;;0.50;0.50;;;21.90;62.70;;;22.14;45.77;95316.63;5059339;28;20235;-79
2022/06/15 07:41:49;;;;;;;0.30;0.30;;;22.00;62.50;;;22.21;45.66;95309.16;5055213;28;20711;-79
2022/06/15 07:44:19;;;;;;;0.30;0.30;;;22.10;62.30;;;22.31;45.15;95312.97;5052013;28;20231;-78
2022/06/15 07:46:47;;;;;;;0.40;0.40;;;22.20;62.00;;;22.41;45.42;95314.94;5055587;28;20202;-79
2022/06/15 07:52:04;;;;;;;0.30;0.30;;;22.30;61.80;;;22.59;44.88;95322.56;5057801;28;20198;-78
2022/06/15 07:54:32;;;;;;;0.47;0.47;;;22.50;61.70;;;22.67;44.90;95316.72;5054668;28;20217;-79
2022/06/15 07:57:00;;;;;;;0.40;0.40;;;22.50;61.60;;;22.77;44.63;95307.16;5041289;28;20280;-80
2022/06/15 07:59:27;;;;;;;0.40;0.40;;;22.70;61.60;;;22.89;44.78;95318.47;5051846;28;20222;-82
2022/06/15 08:01:55;;;;;;;0.50;0.50;;;22.70;61.50;;;23.00;44.76;95314.75;5056972;28;20203;-79
2022/06/15 08:04:22;;;;;;;0.30;0.30;;;22.80;61.50;;;23.08;44.75;95318.00;5057390;28;20225;-79
2022/06/15 08:06:50;;;;;;;0.40;0.40;;;23.00;61.40;;;23.16;44.23;95321.00;5027649;28;20200;-80
2022/06/15 08:09:17;;;;;;;0.30;0.30;;;23.00;61.30;;;23.24;44.65;95316.22;5038615;28;20202;-80
2022/06/15 08:14:36;;;;;;;0.43;0.43;;;23.30;61.30;;;23.40;43.71;95304.50;5041255;28;20313;-80
2022/06/15 08:17:07;;;;;;;0.30;0.30;;;23.30;60.60;;;23.48;44.07;95313.88;5054813;28;20586;-80
2022/06/15 08:19:40;;;;;;;0.40;0.40;;;23.40;60.70;;;23.58;43.36;95299.72;5038516;28;20251;-80
2022/06/15 08:22:08;;;;;;;0.40;0.40;;;23.50;60.50;;;23.65;43.40;95309.09;5064836;28;20210;-79
2022/06/15 08:24:37;;;;;;;0.30;0.30;;;23.50;60.30;;;23.70;42.79;95294.13;5041536;28;20238;-79
2022/06/15 08:27:05;;;;;;;0.30;0.30;;;23.60;60.20;;;23.77;43.10;95300.81;5062729;28;20708;-80
2022/06/15 08:29:34;;;;;;;0.40;0.40;;;23.70;60.20;;;23.81;42.67;95307.28;5094871;28;20234;-79
2022/06/15 08:32:01;;;;;;;0.40;0.40;;;23.70;59.80;;;23.83;42.43;95299.75;5078361;28;20194;-80
2022/06/15 08:34:29;;;;;;;0.30;0.30;;;23.80;59.60;;;23.93;42.56;95308.91;5056528;28;20228;-80
2022/06/15 08:36:57;;;;;;;0.40;0.40;;;23.80;60.40;;;23.96;42.23;95303.84;5058646;28;20255;-79
2022/06/15 08:39:24;;;;;;;0.30;0.30;;;23.90;59.30;;;24.01;42.11;95299.53;5038122;28;20222;-80
2022/06/15 08:42:25;;;;;;;0.30;0.30;;;23.90;58.80;;;24.05;42.10;95305.97;5055943;28;20198;-80
2022/06/15 08:45:11;;;;;;;0.40;0.40;;;24.00;59.20;;;24.11;42.23;95302.22;5057993;28;20244;-79
2022/06/15 08:47:56;;;;;;;0.30;0.30;;;24.00;59.00;;;24.19;42.01;95311.59;5073921;28;20205;-80
2022/06/15 08:51:10;;;;;;;0.40;0.40;;;24.10;59.30;;;24.19;41.81;95298.19;5054612;28;20223;-80
2022/06/15 08:54:10;;;;;;;0.38;0.38;;;24.10;58.80;;;24.29;41.64;95308.91;5054567;28;20186;-79
2022/06/15 08:57:09;;;;;;;0.40;0.40;;;24.20;58.80;;;24.36;41.99;95311.31;5058271;28;20636;-80
2022/06/15 09:00:03;;;;;;;0.40;0.40;;;24.20;59.20;;;24.40;41.18;95313.19;5053053;28;20328;-80
2022/06/15 09:02:57;;;;;;;0.40;0.40;;;24.30;58.60;;;24.48;41.11;95313.72;5066107;28;20189;-81
2022/06/15 09:05:45;;;;;;;0.38;0.38;;;24.30;58.70;;;24.55;41.34;95320.41;5055586;28;20246;-80
2022/06/15 09:09:02;;;;;;;0.30;0.30;;;24.40;58.30;;;24.62;41.05;95314.78;5065902;28;20240;-80
2022/06/15 09:16:04;;;;;;;0.30;0.30;;;24.50;57.50;;;24.75;40.84;95310.75;5091674;28;20229;-80
2022/06/15 09:19:08;;;;;;;0.40;0.40;;;24.60;58.10;;;24.83;39.77;95312.06;4996809;28;20288;-80
2022/06/15 09:21:57;;;;;;;0.40;0.40;;;24.70;57.80;;;24.90;39.89;95310.72;5020217;28;20198;-79
2022/06/15 09:24:32;;;;;;;0.30;0.30;;;24.70;56.90;;;24.99;39.35;95305.59;5051719;28;20318;-80
2022/06/15 09:27:11;;;;;;;0.60;0.60;;;24.70;56.20;;;25.08;39.44;95303.13;5050662;28;20314;-81
2022/06/15 09:29:50;;;;;;;0.40;0.40;;;24.70;56.60;;;25.14;39.38;95310.09;5013084;28;20337;-79
2022/06/15 09:32:30;;;;;;;0.35;0.35;;;24.90;56.60;;;25.18;38.84;95311.16;5064214;28;20688;-79
2022/06/15 09:35:18;;;;;;;0.30;0.30;;;24.90;56.00;;;25.22;38.45;95300.69;5033548;28;20225;-79
2022/06/15 09:37:51;;;;;;;0.30;0.30;;;25.00;55.90;;;25.29;38.37;95309.22;5031159;28;20686;-81
2022/06/15 09:40:19;;;;;;;0.55;0.55;;;25.00;55.30;;;25.36;37.43;95311.63;5038764;28;20218;-80
2022/06/15 09:42:54;;;;;;;0.50;0.50;;;25.10;54.30;;;25.40;37.72;95307.31;5038321;28;20259;-79
2022/06/15 09:45:27;;;;;;;0.50;0.50;;;25.10;54.50;;;25.44;38.14;95303.00;5035995;28;20230;-79
2022/06/15 09:48:21;;;;;;;0.40;0.40;;;25.20;55.00;;;25.49;38.01;95310.25;5053827;28;20258;-79
2022/06/15 09:51:05;;;;;;;0.30;0.30;;;25.20;55.40;;;25.53;38.06;95304.03;5022336;28;20250;-79
2022/06/15 09:53:43;;;;;;;0.30;0.30;;;25.30;54.80;;;25.55;37.78;95301.88;5037624;28;20176;-79
2022/06/15 09:56:14;;;;;;;0.30;0.30;;;25.30;55.70;;;25.56;37.68;95282.00;5052933;28;20228;-79
2022/06/15 09:59:13;;;;;;;0.50;0.50;;;25.40;54.20;;;25.63;37.19;95280.88;5026936;28;20195;-79
2022/06/15 10:01:45;;;;;;;0.30;0.30;;;25.40;54.60;;;25.67;37.27;95287.28;5006563;28;20211;-80
2022/06/15 10:04:21;;;;;;;0.30;0.30;;;25.40;54.00;;;25.76;36.83;95290.22;5036140;28;20661;-79
2022/06/15 10:07:39;;;;;;;0.40;0.40;;;25.50;53.50;;;25.80;36.72;95286.66;5033508;28;20211;-79
2022/06/15 10:10:21;;;;;;;0.60;0.60;;;25.60;53.80;;;25.84;36.88;95282.34;5039648;28;20351;-77
2022/06/15 10:12:58;;;;;;;0.40;0.40;;;25.60;53.60;;;25.90;36.49;95280.41;5072396;28;20196;-78
2022/06/15 10:15:34;;;;;;;0.50;0.50;;;25.60;53.20;;;25.95;36.09;95280.41;5070756;28;20219;-79
2022/06/15 10:18:38;;;;;;;0.30;0.30;;;25.70;52.80;;;25.99;35.82;95281.44;5063314;28;20203;-78
2022/06/15 10:21:17;;;;;;;0.30;0.30;;;25.70;52.60;;;26.01;36.12;95275.75;5063684;28;20289;-78
2022/06/15 10:24:04;;;;;;;0.30;0.30;;;25.80;52.90;;;26.06;36.33;95281.09;5099563;28;20236;-80
2022/06/15 10:26:37;;;;;;;0.40;0.40;;;25.80;52.80;;;26.13;35.74;95275.44;5097822;28;20223;-78
2022/06/15 10:29:25;;;;;;;0.30;0.30;;;25.80;52.50;;;26.19;35.40;95279.69;5110937;28;20250;-78
2022/06/15 10:32:10;;;;;;;0.30;0.30;;;25.90;52.40;;;26.26;35.61;95284.75;5093978;28;20189;-80
2022/06/15 10:34:47;;;;;;;0.30;0.30;;;25.90;52.00;;;26.32;35.27;95283.63;5090785;28;20215;-78
2022/06/15 10:37:28;;;;;;;0.30;0.30;;;26.00;51.60;;;26.36;35.64;95281.94;5084037;28;20221;-78
2022/06/15 10:40:00;;;;;;;0.30;0.30;;;26.00;51.90;;;26.40;35.60;95282.97;5101215;28;20221;-78
2022/06/15 10:42:37;;;;;;;0.45;0.45;;;26.10;51.90;;;26.44;35.54;95286.72;5085809;28;20393;-78
2022/06/15 10:45:18;;;;;;;0.30;0.30;;;26.10;52.50;;;26.45;35.34;95269.50;5056806;28;20285;-79
2022/06/15 10:47:56;;;;;;;0.30;0.30;;;26.20;51.90;;;26.56;35.40;95277.47;5038976;28;20611;-79
2022/06/15 10:50:48;;;;;;;0.30;0.30;;;26.30;51.70;;;26.61;35.91;95272.00;5056547;28;20312;-80
2022/06/15 10:53:54;;;;;;;0.30;0.30;;;26.30;51.90;;;26.71;35.67;95279.19;5078894;28;20662;-79
2022/06/15 11:02:38;;;;;;;0.40;0.40;;;26.50;52.30;;;26.88;35.33;95263.44;5072700;28;20206;-79
2022/06/15 11:05:16;;;;;;;0.30;0.30;;;26.60;51.80;;;26.93;35.06;95255.28;5073413;28;20227;-80
2022/06/15 11:08:24;;;;;;;0.30;0.30;;;26.70;51.70;;;26.98;35.11;95246.34;5074159;28;20589;-81
2022/06/15 11:11:09;;;;;;;0.40;0.40;;;26.70;51.80;;;27.04;35.45;95241.69;4993802;28;20239;-80
2022/06/15 11:13:50;;;;;;;0.30;0.30;;;26.80;51.60;;;27.11;34.98;95242.13;5054327;28;20230;-83
2022/06/15 11:19:16;;;;;;;0.30;0.30;;;26.90;51.10;;;27.19;35.01;95252.25;5077486;28;20254;-79